Les Masies de Roda





Hora UTC 18:10
Temperatura 3.2 ºC
Suelo 15 cm -0.5 ºC
Subsuelo 10 cm 3.6 ºC
Humedad 71.4 %
Presión 1029.6 hPa
Pluja 0.0 mm
Velocidad viento 0.1 km/h
Dirección viento ESE
Radiación solar 0.1 W/m²

Datos diarios 2022-01-25



Hora UTC (invierno +1h; verano +2h)
Temperatura (ºC) Humedad (%) Presión (hPa) Velocidad viento (km/h) Precipitación (mm) Radiación solar (W/m²)
Hora UTC Aire Suelo 15 cm Subsuelo 10 cm Humedad Presión Vel. Dir. Vel. Max Dir. Intent. máx 5 min. Rad. Sol.
00:05 -4.2 -6.5 -0.8 92.4 1030.1 1.2 ENE 1.2 SE 0.0 0.1
00:10 -4.3 -6.6 -0.8 92.4 1030.1 0.4 WNW 2.5 WNW 0.0 0.1
00:15 -4.3 -6.5 -0.9 92.9 1030.1 1.3 WNW 2.8 WNW 0.0 0.1
00:20 -4.2 -6.6 -0.9 93.3 1030.1 0.8 W 2.1 W 0.0 0.1
00:25 -4.2 -6.7 -0.9 93.5 1030.1 0.0 NNE 0.0 W 0.0 0.1
00:30 -4.5 -6.8 -1.0 93.0 1030.1 0.0 NNE 0.0 W 0.0 0.1
00:35 -4.5 -6.8 -1.0 93.0 1030.1 0.0 NNE 0.0 W 0.0 0.1
00:40 -4.3 -6.6 -1.1 93.6 1030.1 1.6 W 2.5 W 0.0 0.1
00:45 -4.3 -6.5 -1.0 93.7 1030.1 2.1 ENE 3.2 ENE 0.0 0.1
00:50 -4.4 -6.6 -1.0 93.6 1030.1 0.0 E 1.4 E 0.0 0.1
00:55 -4.4 -6.6 -1.0 93.5 1030.1 1.6 E 3.5 ESE 0.0 0.1
01:00 -4.6 -6.6 -1.0 93.2 1030.1 3.1 ESE 4.2 ESE 0.0 0.1
01:05 -4.6 -6.6 -1.0 93.2 1030.2 1.2 ESE 3.2 ESE 0.0 0.1
01:10 -4.7 -6.7 -1.1 92.9 1030.2 0.7 NE 2.8 NNW 0.0 0.1
01:15 -4.9 -7.0 -1.1 92.8 1030.3 1.5 NNW 2.8 NNW 0.0 0.1
01:20 -4.8 -7.2 -1.2 93.2 1030.3 0.0 NNE 0.0 NNW 0.0 0.1
01:25 -4.7 -7.2 -1.2 93.5 1030.3 0.0 NNE 0.0 NNW 0.0 0.1
01:30 -4.8 -7.3 -1.2 93.3 1030.3 0.0 NNE 0.0 N 0.0 0.1
01:35 -4.9 -7.2 -1.2 93.4 1030.4 0.0 NNE 0.0 NE 0.0 0.1
01:40 -4.9 -7.1 -1.2 93.5 1030.4 0.0 NNE 0.0 NE 0.0 0.1
01:45 -5.0 -7.2 -1.3 93.1 1030.5 0.0 NNE 0.0 NE 0.0 0.1
01:50 -5.1 -7.3 -1.3 93.2 1030.5 0.0 NNE 0.0 NE 0.0 0.1
01:55 -5.1 -7.5 -1.4 93.2 1030.5 0.0 NNE 0.0 NE 0.0 0.1
02:00 -5.3 -7.5 -1.4 93.0 1030.6 0.0 NNE 0.0 NE 0.0 0.1
02:05 -5.3 -7.6 -1.4 93.2 1030.6 0.0 NNE 0.0 NE 0.0 0.1
02:10 -5.4 -7.6 -1.4 93.1 1030.6 0.0 NNE 0.0 NE 0.0 0.1
02:15 -5.4 -7.7 -1.4 93.2 1030.6 0.0 NNE 0.0 NE 0.0 0.1
02:20 -5.4 -7.7 -1.4 93.2 1030.6 0.0 NNE 0.0 NE 0.0 0.1
02:25 -5.4 -7.6 -1.4 93.3 1030.6 0.0 NNE 0.0 NE 0.0 0.1
02:30 -5.3 -7.5 -1.4 93.6 1030.6 0.0 NNE 0.0 NE 0.0 0.1
02:35 -5.4 -7.6 -1.4 93.5 1030.5 0.0 NNE 0.0 NE 0.0 0.1
02:40 -5.5 -7.5 -1.5 93.2 1030.5 0.0 NNE 0.0 NE 0.0 0.1
02:45 -5.6 -7.7 -1.5 93.1 1030.5 0.0 NNE 0.0 NE 0.0 0.1
02:50 -5.6 -7.8 -1.6 93.2 1030.5 0.0 NNE 0.0 NE 0.0 0.1
02:55 -5.7 -7.8 -1.6 92.9 1030.5 0.0 NNE 0.0 NE 0.0 0.1
03:00 -5.8 -7.9 -1.6 92.9 1030.4 0.0 NNE 0.0 NE 0.0 0.1
03:05 -5.6 -8.0 -1.7 93.3 1030.4 0.0 NNE 0.0 NE 0.0 0.1
03:10 -5.8 -8.0 -1.6 93.2 1030.4 0.4 E 3.2 E 0.0 0.1
03:15 -5.7 -7.9 -1.6 93.2 1030.4 1.0 E 3.2 E 0.0 0.1
03:20 -5.9 -7.8 -1.6 93.0 1030.4 0.0 NNE 0.0 E 0.0 0.1
03:25 -6.0 -8.0 -1.7 92.9 1030.4 0.0 NNE 0.0 E 0.0 0.1
03:30 -5.9 -8.0 -1.7 93.0 1030.4 1.0 E 1.8 E 0.0 0.1
03:35 -5.9 -8.3 -1.7 93.1 1030.4 0.0 NNE 0.0 E 0.0 0.1
03:40 -5.9 -8.3 -1.8 93.2 1030.3 0.0 NNE 0.0 E 0.0 0.1
03:45 -6.0 -8.3 -1.8 93.2 1030.3 0.0 NNE 0.0 E 0.0 0.1
03:50 -5.9 -8.2 -1.8 93.3 1030.4 0.8 E 1.8 E 0.0 0.1
03:55 -5.9 -8.1 -1.8 93.5 1030.4 0.1 E 1.4 E 0.0 0.1
04:00 -6.0 -8.1 -1.8 93.3 1030.4 0.2 E 1.8 E 0.0 0.1
04:05 -6.2 -8.3 -1.8 92.8 1030.3 0.0 NNE 0.0 E 0.0 0.1
04:10 -6.1 -8.4 -1.8 93.2 1030.4 0.0 NNE 0.0 E 0.0 0.1
04:15 -6.2 -8.3 -1.9 93.1 1030.3 0.0 NNE 0.0 E 0.0 0.1
04:20 -6.2 -8.4 -1.9 93.0 1030.4 0.0 NNE 0.0 E 0.0 0.1
04:25 -6.3 -8.3 -1.9 93.0 1030.4 0.0 NNE 0.0 E 0.0 0.1
04:30 -6.4 -8.6 -1.9 92.9 1030.4 0.0 NNE 0.0 E 0.0 0.1
04:35 -6.4 -8.7 -2.0 92.9 1030.3 0.0 NNE 0.0 E 0.0 0.1
04:40 -6.3 -8.5 -2.0 93.1 1030.3 0.0 NNE 0.0 E 0.0 0.1
04:45 -6.3 -8.4 -2.0 93.1 1030.4 0.0 NNE 0.0 E 0.0 0.1
04:50 -6.4 -8.4 -2.0 93.0 1030.5 0.0 NNE 0.0 E 0.0 0.1
04:55 -6.5 -8.4 -2.0 92.9 1030.4 0.0 NNE 0.0 E 0.0 0.1
05:00 -6.5 -8.5 -2.0 92.8 1030.5 0.0 NNE 0.0 E 0.0 0.1
05:05 -6.5 -8.7 -2.0 93.0 1030.4 0.0 NNE 0.0 E 0.0 0.1
05:10 -6.4 -8.7 -2.0 93.3 1030.4 0.0 NNE 0.0 E 0.0 0.1
05:15 -6.5 -8.6 -2.1 93.3 1030.4 0.0 NNE 0.0 E 0.0 0.1
05:20 -6.6 -8.7 -2.1 93.0 1030.4 0.0 NNE 0.0 E 0.0 0.1
05:25 -6.7 -8.8 -2.1 92.9 1030.5 0.0 NNE 0.0 E 0.0 0.1
05:30 -6.6 -8.8 -2.1 93.0 1030.5 0.0 NNE 0.0 E 0.0 0.1
05:35 -6.6 -8.7 -2.1 93.0 1030.5 0.0 NNE 0.0 E 0.0 0.1
05:40 -6.7 -8.6 -2.1 92.9 1030.5 0.0 NNE 0.0 E 0.0 0.1
05:45 -6.7 -8.6 -2.1 93.2 1030.6 0.0 NNE 0.0 E 0.0 0.1
05:50 -6.7 -8.8 -2.2 93.3 1030.6 0.0 NNE 0.0 E 0.0 0.1
05:55 -6.8 -8.9 -2.2 93.4 1030.6 0.0 NNE 0.0 E 0.0 0.1
06:00 -6.6 -8.8 -2.2 93.9 1030.6 0.0 NNE 0.0 E 0.0 0.1
06:05 -6.7 -8.8 -2.2 94.0 1030.7 0.0 NNE 0.0 E 0.0 0.1
06:10 -6.6 -8.6 -2.2 94.0 1030.7 1.2 E 2.8 E 0.0 0.1
06:15 -6.6 -8.6 -2.2 94.1 1030.8 1.0 E 2.5 E 0.0 0.1
06:20 -6.6 -8.5 -2.2 94.2 1030.8 1.0 E 2.1 E 0.0 0.1
06:25 -6.7 -8.5 -2.1 94.3 1030.8 0.0 NNE 0.0 E 0.0 0.1
06:30 -6.7 -8.4 -2.1 94.5 1030.8 0.0 NNE 0.0 E 0.0 0.1
06:35 -6.8 -8.4 -2.1 94.5 1030.9 0.0 NNE 0.0 E 0.0 0.1
06:40 -6.8 -8.3 -2.1 94.5 1030.9 0.0 NNE 0.0 E 0.0 0.1
06:45 -6.7 -8.2 -2.1 94.4 1030.9 0.0 NNE 0.0 E 0.0 0.1
06:50 -6.7 -8.2 -2.0 94.3 1030.9 0.0 NNE 0.0 E 0.0 0.2
06:55 -6.7 -8.1 -1.9 94.1 1031.0 0.0 NNE 0.0 E 0.0 0.5
07:00 -6.6 -8.0 -1.8 94.2 1031.0 0.0 NNE 0.0 E 0.0 1.1
07:05 -6.6 -7.9 -1.8 94.0 1031.1 0.0 NNE 0.0 E 0.0 1.7
07:10 -6.6 -7.8 -1.8 94.0 1031.1 1.3 NE 3.2 NNE 0.0 2.6
07:15 -6.4 -7.6 -1.8 94.3 1031.1 0.0 NNE 0.0 NE 0.0 3.6
07:20 -6.2 -7.3 -1.7 94.4 1031.2 2.2 ENE 3.5 E 0.0 5.1
07:25 -6.1 -7.2 -1.7 94.4 1031.2 2.6 ENE 3.5 E 0.0 7.2
07:30 -6.1 -7.0 -1.7 94.3 1031.2 0.8 NNE 1.8 NE 0.0 12.7
07:35 -6.0 -7.0 -1.7 94.2 1031.2 0.1 NNE 1.8 NNE 0.0 16.9
07:40 -6.0 -6.9 -1.7 94.2 1031.2 0.0 NNE 0.0 NNE 0.0 21.7
07:45 -6.0 -6.9 -1.7 94.1 1031.2 0.0 NNE 0.0 NNE 0.0 25.1
07:50 -5.9 -6.8 -1.6 94.1 1031.3 0.0 NNE 0.0 NNE 0.0 32.0
07:55 -5.8 -6.6 -1.6 94.1 1031.3 0.0 NNW 2.1 NNW 0.0 36.6
08:00 -5.7 -6.4 -1.6 94.2 1031.4 0.6 NNW 2.5 NNW 0.0 38.0
08:05 -5.6 -6.1 -1.5 94.2 1031.4 0.0 NNE 0.0 N 0.0 39.5
08:10 -5.6 -5.9 -1.5 94.2 1031.4 0.0 NNE 0.0 N 0.0 47.0
08:15 -5.4 -5.6 -1.4 94.3 1031.4 0.0 NNE 0.0 N 0.0 51.7
08:20 -5.3 -5.3 -1.4 94.3 1031.4 0.0 NNE 0.0 NNW 0.0 59.1
08:25 -5.1 -5.1 -1.3 94.3 1031.4 0.0 NNE 0.0 NNW 0.0 63.2
08:30 -5.0 -4.7 -1.2 94.4 1031.4 0.7 ENE 2.8 ENE 0.0 70.9
08:35 -4.8 -4.3 -1.2 94.4 1031.4 0.1 ENE 1.8 ENE 0.0 81.3
08:40 -4.6 -4.1 -1.1 94.4 1031.4 0.0 NNE 0.0 ENE 0.0 88.4
08:45 -4.4 -3.7 -1.0 94.5 1031.4 0.5 ENE 2.5 ENE 0.0 97.5
08:50 -4.3 -3.4 -1.0 94.4 1031.4 0.2 ENE 1.8 ENE 0.0 101.3
08:55 -4.1 -3.2 -0.9 94.5 1031.4 0.0 NNE 0.0 ENE 0.0 110.1
09:00 -4.0 -3.2 -0.9 94.5 1031.4 0.0 NNE 0.0 ENE 0.0 111.1
09:05 -3.8 -3.0 -0.8 94.5 1031.4 0.1 ENE 1.8 ENE 0.0 126.1
09:10 -3.6 -2.5 -0.8 94.5 1031.4 0.4 ENE 1.8 ENE 0.0 164.4
09:15 -3.2 -1.9 -0.7 94.5 1031.4 1.3 NW 2.8 NNW 0.0 197.2
09:20 -3.0 -1.7 -0.5 94.5 1031.4 0.5 NNW 3.2 NNW 0.0 168.9
09:25 -2.8 -1.5 -0.5 94.5 1031.4 1.2 NW 3.2 NNW 0.0 188.9
09:30 -2.5 -0.9 -0.4 94.4 1031.4 0.4 NNW 2.8 NNW 0.0 245.4
09:35 -2.1 -0.4 -0.2 94.4 1031.4 0.1 NNW 1.8 NNW 0.0 266.8
09:40 -1.5 -0.2 -0.1 94.4 1031.4 1.6 WNW 3.5 WNW 0.0 313.9
09:45 -0.8 0.0 0.1 94.4 1031.5 0.6 WSW 2.5 WNW 0.0 327.6
09:50 -0.4 0.3 0.2 93.9 1031.4 0.7 WSW 2.5 WNW 0.0 334.0
09:55 0.0 1.1 0.3 93.2 1031.4 0.5 WSW 2.5 SSW 0.0 339.2
10:00 -0.1 1.7 0.4 92.7 1031.4 0.2 NNW 2.1 NNW 0.0 338.6
10:05 0.3 2.4 0.5 92.1 1031.4 0.4 SSW 2.1 WSW 0.0 343.4
10:10 1.0 2.8 0.4 90.5 1031.4 0.1 WSW 1.8 W 0.0 353.4
10:15 1.5 3.2 0.5 86.5 1031.4 0.4 W 2.5 W 0.0 363.6
10:20 2.0 3.5 0.7 83.0 1031.4 2.0 SW 3.5 SSW 0.0 371.8
10:25 2.5 4.0 0.9 80.5 1031.4 0.9 WSW 3.2 WSW 0.0 380.1
10:30 3.0 4.6 1.1 79.5 1031.3 1.7 W 5.3 SW 0.0 387.3
10:35 3.0 5.1 1.3 78.2 1031.2 1.9 WNW 4.2 W 0.0 394.0
10:40 3.4 5.8 1.4 79.0 1031.2 1.0 WSW 4.2 WSW 0.0 401.0
10:45 3.8 6.0 1.5 76.2 1031.2 2.3 W 4.2 W 0.0 410.7
10:50 4.0 6.3 1.7 75.6 1031.1 2.5 WSW 4.2 SSW 0.0 416.1
10:55 4.5 7.0 1.8 74.8 1031.1 0.9 W 3.2 NW 0.0 421.9
11:00 4.1 7.8 1.9 76.4 1031.0 1.7 NW 3.2 WNW 0.0 428.1
11:05 4.6 8.0 2.1 73.0 1031.0 2.3 SSW 4.2 SW 0.0 433.1
11:10 5.5 8.6 2.2 69.7 1031.0 1.4 WNW 3.9 NW 0.0 435.8
11:15 5.1 9.2 2.3 68.7 1030.9 2.2 WNW 5.7 NW 0.0 439.4
11:20 5.3 9.5 2.5 68.4 1030.9 0.8 W 3.5 WNW 0.0 441.8
11:25 6.2 10.3 2.6 65.5 1030.8 0.7 SSW 3.2 SSW 0.0 444.9
11:30 6.7 10.4 2.8 62.4 1030.8 1.0 W 3.2 W 0.0 449.0
11:35 7.1 11.0 3.0 59.7 1030.7 1.0 S 4.6 SSW 0.0 451.3
11:40 7.5 10.9 3.1 57.7 1030.6 0.6 SW 2.5 SSW 0.0 453.8
11:45 7.7 11.4 3.3 57.0 1030.6 0.2 NNW 2.1 NW 0.0 456.5
11:50 7.8 11.7 3.4 56.7 1030.5 1.0 SSE 4.2 SSE 0.0 456.3
11:55 8.1 11.5 3.5 54.9 1030.4 1.5 SSW 3.2 WSW 0.0 457.0
12:00 8.2 12.0 3.6 53.5 1030.4 0.0 W 1.4 W 0.0 457.7
12:05 8.0 13.2 3.8 53.7 1030.2 0.5 ENE 3.5 WSW 0.0 458.0
12:10 8.5 13.6 4.1 53.1 1030.2 2.1 W 3.5 W 0.0 458.0
12:15 8.7 14.1 4.3 52.2 1030.1 2.6 NW 4.2 NW 0.0 456.9
12:20 8.8 14.5 4.5 51.7 1030.0 1.3 NNW 3.9 N 0.0 454.6
12:25 9.0 14.5 4.6 51.0 1030.0 1.7 N 4.6 N 0.0 453.1
12:30 8.8 15.5 4.8 50.0 1029.9 1.7 E 4.2 E 0.0 450.4
12:35 9.2 15.8 5.1 50.5 1029.8 0.2 ESE 2.5 ESE 0.0 448.2
12:40 10.1 15.9 5.4 49.0 1029.8 0.4 SSE 3.2 SW 0.0 446.2
12:45 10.7 16.0 5.7 47.5 1029.7 0.3 WSW 2.5 WSW 0.0 442.6
12:50 11.3 16.4 5.9 47.8 1029.6 2.3 WSW 4.2 WSW 0.0 439.7
12:55 11.7 16.1 6.2 45.9 1029.6 0.8 SSW 4.2 SSW 0.0 436.9
13:00 11.8 15.7 6.4 45.8 1029.4 4.0 WSW 7.4 SW 0.0 432.9
13:05 12.0 16.2 6.6 45.2 1029.4 2.9 WNW 5.7 WSW 0.0 427.8
13:10 12.3 16.2 6.9 43.9 1029.3 3.2 W 5.3 NW 0.0 422.4
13:15 12.5 16.5 7.1 43.3 1029.3 2.5 W 4.6 WNW 0.0 415.7
13:20 12.7 16.8 7.4 43.4 1029.2 3.4 W 6.0 W 0.0 410.8
13:25 12.9 16.7 7.6 42.8 1029.2 2.7 SW 5.0 WSW 0.0 404.9
13:30 13.0 16.7 7.8 42.8 1029.1 2.7 WSW 4.6 WSW 0.0 398.7
13:35 13.4 17.7 8.0 42.3 1029.0 0.9 SW 3.2 WNW 0.0 392.8
13:40 13.8 18.3 8.3 42.1 1029.0 1.7 WSW 4.6 SW 0.0 385.9
13:45 13.8 18.2 8.6 41.4 1028.9 1.7 W 4.6 WNW 0.0 378.4
13:50 13.8 18.8 8.8 41.5 1028.9 0.6 WSW 3.9 WSW 0.0 370.9
13:55 14.2 18.3 9.0 40.3 1028.8 1.8 SW 3.9 SW 0.0 363.6
14:00 14.3 17.8 9.2 40.2 1028.8 1.7 SSW 5.0 SSW 0.0 355.9
14:05 14.6 17.8 9.3 39.9 1028.8 2.9 WSW 5.3 SW 0.0 346.9
14:10 14.8 17.6 9.4 38.5 1028.7 2.5 WSW 4.2 W 0.0 336.9
14:15 14.7 18.1 9.5 38.7 1028.7 0.3 SSW 3.9 S 0.0 328.2
14:20 14.7 18.0 9.6 38.7 1028.7 3.5 SSW 6.4 SSW 0.0 287.6
14:25 14.6 17.3 9.7 37.7 1028.7 3.3 SW 6.4 WSW 0.0 309.7
14:30 14.9 17.6 9.7 37.7 1028.7 1.9 WSW 5.3 S 0.0 300.5
14:35 15.0 18.1 9.9 37.7 1028.7 0.9 WSW 3.5 W 0.0 291.4
14:40 15.3 17.9 10.0 36.8 1028.7 3.1 SW 4.6 SW 0.0 282.3
14:45 15.4 17.7 10.1 37.0 1028.7 2.0 WSW 5.3 W 0.0 271.7
14:50 15.5 18.3 10.2 37.0 1028.7 2.1 W 5.0 WNW 0.0 261.5
14:55 15.5 18.0 10.3 36.8 1028.7 4.0 W 6.0 WSW 0.0 248.3
15:00 15.4 17.4 10.3 37.1 1028.7 3.2 WSW 5.7 WSW 0.0 203.3
15:05 15.3 17.1 10.3 37.1 1028.7 2.4 SSW 5.3 WSW 0.0 230.2
15:10 15.4 16.5 10.3 37.1 1028.7 1.5 W 4.6 WSW 0.0 219.4
15:15 15.5 16.4 10.3 36.9 1028.7 3.3 SW 6.0 WSW 0.0 208.8
15:20 15.5 16.8 10.3 37.1 1028.7 2.0 WSW 6.0 W 0.0 198.4
15:25 15.5 16.8 10.4 37.3 1028.7 2.2 W 4.6 SW 0.0 186.6
15:30 15.4 16.6 10.4 36.7 1028.7 0.6 WSW 3.9 WSW 0.0 175.1
15:35 15.3 16.5 10.1 36.9 1028.6 0.6 WSW 2.5 WSW 0.0 164.3
15:40 15.0 15.8 9.7 37.1 1028.7 0.8 WSW 3.2 WSW 0.0 153.2
15:45 15.1 15.1 9.4 37.6 1028.6 1.7 WSW 3.9 WSW 0.0 142.9
15:50 15.1 14.0 9.0 37.2 1028.7 2.9 W 4.2 WSW 0.0 132.6
15:55 15.0 13.1 8.8 36.7 1028.7 3.3 SW 5.0 SW 0.0 121.5
16:00 14.8 12.6 8.7 37.3 1028.7 2.4 WSW 3.5 SW 0.0 110.4
16:05 14.7 12.3 8.8 36.6 1028.7 1.9 WSW 4.2 SW 0.0 99.8
16:10 14.4 11.5 8.8 36.3 1028.7 2.9 SW 4.6 SSW 0.0 91.0
16:15 14.3 11.0 8.7 36.4 1028.7 1.5 WNW 3.9 W 0.0 82.0
16:20 14.0 10.3 8.4 36.3 1028.7 1.9 W 4.6 SSE 0.0 72.8
16:25 13.4 9.8 8.0 40.5 1028.8 1.6 WNW 3.2 WNW 0.0 63.0
16:30 12.9 8.9 7.6 42.0 1028.8 1.6 NNW 3.9 NNW 0.0 53.7
16:35 12.5 8.4 7.3 42.7 1028.8 2.7 NNW 3.9 NNW 0.0 43.6
16:40 11.9 7.5 7.0 44.2 1028.8 2.3 NNW 3.2 NNW 0.0 31.1
16:45 11.0 6.5 6.7 46.8 1028.8 2.4 NNW 3.5 NNW 0.0 10.4
16:50 10.3 5.5 6.4 49.2 1028.8 2.2 NNW 3.2 NNW 0.0 8.2
16:55 9.6 4.7 6.2 50.6 1028.9 0.3 NNW 2.1 NNW 0.0 6.3
17:00 9.2 4.0 5.9 50.4 1028.9 0.0 NNE 0.0 NNW 0.0 4.5
17:05 7.9 3.3 5.6 53.0 1029.0 0.0 NNE 0.0 NNW 0.0 3.0
17:10 7.2 2.8 5.4 56.4 1029.0 1.7 NNW 2.5 NNW 0.0 1.7
17:15 6.5 2.3 5.2 57.9 1029.1 1.5 NNW 2.8 NNW 0.0 0.9
17:20 5.9 1.8 5.0 60.3 1029.1 2.1 ENE 3.2 SE 0.0 0.4
17:25 5.3 1.5 4.9 63.4 1029.1 0.0 NNE 0.0 SE 0.0 0.2
17:30 5.2 1.1 4.7 64.4 1029.1 0.8 S 3.5 S 0.0 0.1
17:35 4.8 0.8 4.5 64.9 1029.2 0.7 SSW 2.5 SSW 0.0 0.1
17:40 4.5 0.5 4.4 66.0 1029.3 1.4 SE 3.5 ENE 0.0 0.1
17:45 3.8 0.2 4.2 68.1 1029.3 3.4 E 6.0 E 0.0 0.1
17:50 3.9 0.1 4.1 68.6 1029.4 4.7 ESE 6.0 ESE 0.0 0.1
17:55 3.8 0.0 4.0 68.3 1029.4 2.4 ESE 5.0 SE 0.0 0.1
18:00 3.5 -0.3 3.8 69.6 1029.5 4.7 ESE 6.4 ESE 0.0 0.1
18:05 3.3 -0.4 3.7 71.0 1029.5 2.4 SE 5.3 SE 0.0 0.1
18:10 3.2 -0.5 3.6 71.4 1029.6 0.1 ESE 2.1 ESE 0.0 0.1
Máxima 15.6 18.8 10.4 94.5 1031.5 4.7 ESE 7.4 SW 0.0 458.0
Mínima -6.8 -8.9 -2.2 36.3 1028.6
Total 0.0